createdAt,value
2022-11-23T00:01:35.935Z,80.05
2022-11-23T00:04:12.627Z,77.00
2022-11-23T00:06:41.207Z,70.90
2022-11-23T00:09:11.646Z,83.70
2022-11-23T00:11:39.433Z,72.63
2022-11-23T00:14:07.496Z,77.93
2022-11-23T00:16:50.657Z,89.60
2022-11-23T00:19:18.623Z,93.07
2022-11-23T00:21:46.329Z,91.15
2022-11-23T00:24:14.336Z,84.75
2022-11-23T00:26:42.045Z,79.25
2022-11-23T00:29:10.087Z,84.97
2022-11-23T00:31:38.423Z,82.97
2022-11-23T00:34:08.228Z,86.57
2022-11-23T00:36:35.876Z,89.15
2022-11-23T00:39:03.997Z,78.53
2022-11-23T00:41:31.651Z,79.80
2022-11-23T00:43:59.669Z,80.88
2022-11-23T00:46:28.753Z,84.82
2022-11-23T00:48:58.916Z,90.38
2022-11-23T00:51:32.694Z,82.50
2022-11-23T00:54:01.566Z,78.05
2022-11-23T00:56:30.397Z,81.15
2022-11-23T00:59:00.457Z,81.72
2022-11-23T01:01:33.757Z,92.78
2022-11-23T01:04:03.954Z,82.32
2022-11-23T01:06:38.199Z,81.65
2022-11-23T01:09:12.116Z,79.28
2022-11-23T01:11:39.954Z,75.75
2022-11-23T01:14:07.888Z,77.03
2022-11-23T01:16:38.420Z,88.13
2022-11-23T01:19:11.714Z,83.68
2022-11-23T01:21:39.882Z,86.57
2022-11-23T01:24:26.456Z,78.00
2022-11-23T01:26:55.465Z,85.30
2022-11-23T01:29:24.648Z,82.78
2022-11-23T01:31:52.318Z,79.00
2022-11-23T01:34:20.304Z,75.40
2022-11-23T01:36:48.096Z,79.13
2022-11-23T01:39:16.010Z,80.45
2022-11-23T01:41:45.486Z,88.20
2022-11-23T01:44:34.887Z,81.10
2022-11-23T01:47:08.655Z,74.78
2022-11-23T01:49:42.937Z,82.93
2022-11-23T01:54:54.927Z,70.13
2022-11-23T01:57:34.435Z,73.97
2022-11-23T02:00:02.879Z,74.10
2022-11-23T02:02:47.715Z,80.20
2022-11-23T02:05:18.668Z,79.38
2022-11-23T02:07:49.372Z,72.90
2022-11-23T02:10:18.237Z,81.95
2022-11-23T02:12:46.489Z,78.57
2022-11-23T02:15:14.733Z,69.20
2022-11-23T02:17:44.199Z,73.60
2022-11-23T02:20:17.696Z,70.50
2022-11-23T02:23:06.745Z,74.15
2022-11-23T02:25:43.147Z,70.28
2022-11-23T02:28:15.010Z,68.35
2022-11-23T02:30:44.296Z,72.32
2022-11-23T02:33:12.033Z,78.80
2022-11-23T02:35:54.874Z,69.63
2022-11-23T02:38:25.557Z,70.40
2022-11-23T02:40:53.707Z,74.07
2022-11-23T02:43:35.702Z,75.65
2022-11-23T02:46:05.575Z,74.15
2022-11-23T02:48:33.303Z,70.53
2022-11-23T02:51:04.610Z,62.33
2022-11-23T02:53:33.259Z,66.15
2022-11-23T02:56:01.194Z,59.70
2022-11-23T02:58:28.967Z,48.65
2022-11-23T03:00:56.931Z,58.50
2022-11-23T03:03:24.821Z,55.35
2022-11-23T03:05:52.755Z,60.65
2022-11-23T03:08:20.426Z,54.80
2022-11-23T03:10:49.547Z,56.33
2022-11-23T03:13:17.244Z,56.55
2022-11-23T03:15:45.565Z,57.30
2022-11-23T03:18:13.539Z,58.30
2022-11-23T03:20:41.543Z,60.30
2022-11-23T03:23:09.221Z,57.25
2022-11-23T03:25:37.199Z,50.83
2022-11-23T03:28:06.517Z,49.40
2022-11-23T03:30:35.339Z,50.60
2022-11-23T03:33:05.411Z,41.80
2022-11-23T03:35:33.421Z,53.47
2022-11-23T03:38:18.770Z,45.85
2022-11-23T03:40:47.736Z,45.28
2022-11-23T03:43:26.579Z,44.88
2022-11-23T03:45:54.570Z,40.83
2022-11-23T03:48:23.582Z,42.13
2022-11-23T03:50:52.184Z,45.20
2022-11-23T03:53:19.932Z,45.28
2022-11-23T03:55:48.192Z,38.17
2022-11-23T03:58:16.338Z,45.65
2022-11-23T04:00:44.431Z,42.53
2022-11-23T04:03:15.532Z,39.60
2022-11-23T04:06:02.500Z,45.40
2022-11-23T04:08:48.463Z,40.47
2022-11-23T04:11:24.282Z,40.80
2022-11-23T04:13:52.003Z,44.28
2022-11-23T04:16:20.728Z,41.30
2022-11-23T04:18:48.620Z,38.20
2022-11-23T04:21:17.424Z,43.33
2022-11-23T04:23:45.423Z,38.67
2022-11-23T04:26:15.704Z,39.92
2022-11-23T04:28:46.310Z,41.90
2022-11-23T04:31:14.816Z,37.63
2022-11-23T04:33:58.755Z,39.97
2022-11-23T04:36:28.139Z,40.55
2022-11-23T04:38:56.330Z,38.00
2022-11-23T04:41:34.290Z,41.83
2022-11-23T04:44:04.265Z,40.95
2022-11-23T04:46:32.325Z,39.55
2022-11-23T04:49:01.279Z,39.08
2022-11-23T04:51:29.382Z,31.00
2022-11-23T04:53:57.284Z,38.03
2022-11-23T04:56:28.632Z,34.00
2022-11-23T04:58:56.418Z,36.95
2022-11-23T05:01:25.350Z,36.78
2022-11-23T05:04:33.212Z,36.33
2022-11-23T05:07:02.064Z,40.45
2022-11-23T05:09:32.416Z,37.75
2022-11-23T05:12:11.614Z,38.88
2022-11-23T05:14:42.957Z,39.75
2022-11-23T05:17:12.379Z,39.53
2022-11-23T05:19:42.031Z,39.20
2022-11-23T05:22:10.109Z,35.78
2022-11-23T05:24:41.264Z,38.17
2022-11-23T05:27:12.008Z,37.13
2022-11-23T05:29:40.107Z,37.33
2022-11-23T05:32:08.990Z,35.50
2022-11-23T05:34:36.703Z,35.22
2022-11-23T05:37:05.904Z,33.95
2022-11-23T05:39:34.351Z,40.53
2022-11-23T05:42:02.647Z,34.13
2022-11-23T05:44:35.038Z,38.33
2022-11-23T05:47:05.500Z,39.65
2022-11-23T05:49:35.359Z,38.67
2022-11-23T05:52:06.201Z,41.90
2022-11-23T05:54:36.241Z,43.35
2022-11-23T05:59:39.889Z,40.97
2022-11-23T06:02:11.779Z,36.60
2022-11-23T06:04:39.546Z,38.90
2022-11-23T06:07:11.765Z,47.35
2022-11-23T06:10:09.072Z,37.60
2022-11-23T06:12:41.031Z,43.92
2022-11-23T06:15:13.720Z,45.13
2022-11-23T06:17:42.399Z,48.40
2022-11-23T06:20:15.868Z,41.47
2022-11-23T06:22:53.853Z,49.88
2022-11-23T06:25:23.916Z,42.45
2022-11-23T06:28:01.428Z,41.05
2022-11-23T06:30:37.003Z,40.90
2022-11-23T06:33:08.205Z,38.10
2022-11-23T06:35:43.016Z,34.85
2022-11-23T06:38:11.563Z,41.25
2022-11-23T06:40:39.964Z,37.92
2022-11-23T06:43:09.059Z,45.55
2022-11-23T06:45:43.136Z,44.17
2022-11-23T06:48:15.087Z,44.88
2022-11-23T06:50:46.891Z,39.40
2022-11-23T06:53:16.680Z,39.15
2022-11-23T06:55:49.021Z,40.40
2022-11-23T06:58:19.655Z,41.90
2022-11-23T07:00:47.580Z,40.05
2022-11-23T07:03:24.197Z,40.58
2022-11-23T07:06:10.840Z,40.28
2022-11-23T07:08:43.391Z,37.00
2022-11-23T07:11:33.918Z,44.15
2022-11-23T07:14:01.979Z,40.70
2022-11-23T07:16:31.402Z,47.00
2022-11-23T07:18:59.518Z,38.20
2022-11-23T07:21:27.320Z,41.35
2022-11-23T07:23:55.864Z,37.55
2022-11-23T07:26:23.650Z,39.13
2022-11-23T07:28:51.543Z,43.72
2022-11-23T07:31:19.691Z,41.47
2022-11-23T07:33:47.922Z,38.53
2022-11-23T07:36:15.693Z,39.03
2022-11-23T07:38:45.978Z,43.20
2022-11-23T07:41:16.251Z,37.17
2022-11-23T07:44:07.200Z,37.17
2022-11-23T07:46:35.057Z,40.17
2022-11-23T07:49:03.168Z,34.08
2022-11-23T07:51:31.076Z,37.15
2022-11-23T07:53:59.030Z,38.80
2022-11-23T07:56:26.700Z,35.17
2022-11-23T07:58:54.607Z,28.13
2022-11-23T08:01:22.391Z,29.33
2022-11-23T08:03:50.455Z,30.75
2022-11-23T08:06:18.290Z,30.45
2022-11-23T08:08:46.380Z,26.92
2022-11-23T08:11:20.761Z,27.48
2022-11-23T08:13:49.001Z,24.00
2022-11-23T08:16:16.715Z,25.48
2022-11-23T08:18:44.699Z,26.85
2022-11-23T08:21:12.555Z,27.13
2022-11-23T08:23:40.540Z,26.75
2022-11-23T08:26:13.447Z,24.77
2022-11-23T08:28:42.265Z,25.70
2022-11-23T08:31:11.734Z,24.40
2022-11-23T08:33:40.719Z,26.40
2022-11-23T08:36:09.095Z,27.50
2022-11-23T08:38:37.181Z,30.10
2022-11-23T08:41:05.713Z,25.30
2022-11-23T08:43:34.916Z,29.80
2022-11-23T08:46:07.937Z,25.75
2022-11-23T08:48:38.832Z,25.92
2022-11-23T08:51:07.152Z,27.67
2022-11-23T08:53:35.174Z,28.23
2022-11-23T08:56:07.497Z,28.63
2022-11-23T08:58:36.902Z,34.70
2022-11-23T09:01:09.570Z,34.30
2022-11-23T09:03:37.764Z,31.17
2022-11-23T09:06:05.608Z,37.05
2022-11-23T09:08:33.882Z,33.17
2022-11-23T09:11:02.835Z,27.05
2022-11-23T09:13:31.393Z,29.02
2022-11-23T09:16:03.484Z,28.08
2022-11-23T09:18:33.251Z,28.50
2022-11-23T09:21:04.381Z,26.88
2022-11-23T09:23:32.862Z,26.30
2022-11-23T09:26:01.610Z,28.48
2022-11-23T09:28:29.934Z,29.65
2022-11-23T09:30:57.995Z,26.35
2022-11-23T09:33:26.305Z,26.85
2022-11-23T09:35:59.253Z,28.05
2022-11-23T09:38:51.486Z,25.87
2022-11-23T09:41:37.645Z,28.05
2022-11-23T09:44:14.056Z,25.33
2022-11-23T09:47:19.346Z,29.58
2022-11-23T09:50:11.392Z,26.98
2022-11-23T09:52:44.173Z,29.27
2022-11-23T09:55:41.934Z,24.52
2022-11-23T09:58:16.108Z,31.02
2022-11-23T10:01:02.015Z,28.60
2022-11-23T10:03:34.470Z,33.38
2022-11-23T10:06:06.462Z,31.52
2022-11-23T10:09:24.826Z,27.67
2022-11-23T10:12:16.701Z,31.83
2022-11-23T10:14:59.736Z,28.45
2022-11-23T10:17:43.297Z,24.83
2022-11-23T10:20:17.414Z,27.47
2022-11-23T10:23:01.414Z,24.30
2022-11-23T10:25:46.733Z,28.38
2022-11-23T10:28:18.327Z,27.17
2022-11-23T10:30:53.823Z,27.45
2022-11-23T10:33:30.124Z,30.10
2022-11-23T10:35:58.356Z,154.63
2022-11-23T10:38:28.138Z,36.40
2022-11-23T10:41:15.502Z,29.88
2022-11-23T10:44:01.002Z,27.52
2022-11-23T10:46:34.917Z,29.17
2022-11-23T10:49:23.091Z,29.40
2022-11-23T10:52:17.891Z,34.60
2022-11-23T10:57:33.656Z,78.57
2022-11-23T11:00:15.836Z,50.17
2022-11-23T11:02:49.593Z,35.00
2022-11-23T11:08:27.976Z,35.53
2022-11-23T11:11:06.535Z,36.53
2022-11-23T11:13:42.747Z,32.28
2022-11-23T11:16:26.138Z,27.90
2022-11-23T11:18:54.076Z,30.92
2022-11-23T11:21:35.176Z,45.65
2022-11-23T11:24:04.179Z,43.72
2022-11-23T11:26:35.147Z,42.67
2022-11-23T11:29:06.534Z,44.78
2022-11-23T11:31:50.414Z,40.13
2022-11-23T11:34:24.161Z,39.33
2022-11-23T11:37:03.489Z,39.40
2022-11-23T11:39:42.166Z,42.45
2022-11-23T11:42:21.104Z,43.70
2022-11-23T11:44:53.028Z,46.47
2022-11-23T11:47:32.285Z,47.25
2022-11-23T11:50:06.110Z,42.78
2022-11-23T11:52:39.925Z,50.78
2022-11-23T11:55:20.104Z,45.42
2022-11-23T11:58:08.489Z,45.58
2022-11-23T12:00:43.541Z,49.70
2022-11-23T12:03:24.977Z,50.33
2022-11-23T12:05:55.975Z,47.40
2022-11-23T12:08:39.392Z,51.70
2022-11-23T12:11:11.567Z,51.88
2022-11-23T12:13:43.009Z,52.08
2022-11-23T12:16:30.873Z,52.97
2022-11-23T12:19:16.922Z,56.03
2022-11-23T12:22:03.937Z,57.17
2022-11-23T12:25:11.494Z,57.45
2022-11-23T12:27:59.174Z,57.58
2022-11-23T12:30:52.487Z,62.10
2022-11-23T12:33:20.218Z,58.08
2022-11-23T12:36:06.405Z,63.28
2022-11-23T12:39:24.461Z,63.08
2022-11-23T12:42:41.769Z,56.55
2022-11-23T12:45:39.454Z,56.30
2022-11-23T12:48:31.650Z,56.45
2022-11-23T12:51:40.650Z,53.38
2022-11-23T12:54:44.595Z,52.95
2022-11-23T12:57:22.502Z,64.68
2022-11-23T13:00:01.139Z,62.03
2022-11-23T13:02:50.086Z,59.42
2022-11-23T13:05:39.745Z,57.63
2022-11-23T13:08:28.408Z,63.67
2022-11-23T13:11:23.211Z,60.75
2022-11-23T13:14:16.413Z,61.70
2022-11-23T13:16:54.971Z,57.43
2022-11-23T13:19:41.305Z,62.38
2022-11-23T13:22:19.017Z,58.85
2022-11-23T13:25:08.485Z,61.75
2022-11-23T13:27:49.686Z,61.05
2022-11-23T13:33:23.678Z,57.42
2022-11-23T13:36:03.551Z,57.50
2022-11-23T13:38:43.584Z,61.28
2022-11-23T13:41:42.668Z,60.03
2022-11-23T13:44:24.580Z,61.20
2022-11-23T13:47:14.820Z,61.22
2022-11-23T13:49:45.948Z,57.85
2022-11-23T13:52:23.845Z,62.50
2022-11-23T13:55:08.968Z,60.13
2022-11-23T13:57:42.698Z,61.10
2022-11-23T14:00:46.721Z,70.85
2022-11-23T14:03:42.808Z,66.88
2022-11-23T14:06:23.557Z,76.30
2022-11-23T14:09:17.662Z,76.75
2022-11-23T14:14:26.527Z,74.05
2022-11-23T14:17:27.319Z,77.15
2022-11-23T14:20:00.968Z,71.32
2022-11-23T14:22:58.025Z,68.32
2022-11-23T14:25:45.067Z,66.88
2022-11-23T14:28:47.015Z,74.70
2022-11-23T14:31:17.671Z,70.00
2022-11-23T14:33:59.131Z,76.30
2022-11-23T14:36:35.755Z,83.80
2022-11-23T14:39:38.610Z,77.38
2022-11-23T14:42:17.151Z,75.68
2022-11-23T14:44:45.808Z,88.55
2022-11-23T14:47:13.816Z,87.65
2022-11-23T14:49:51.697Z,82.22
2022-11-23T14:52:26.439Z,79.65
2022-11-23T14:54:57.373Z,82.85
2022-11-23T14:57:29.173Z,76.75
2022-11-23T15:00:00.622Z,75.45
2022-11-23T15:02:38.326Z,74.03
2022-11-23T15:05:24.466Z,74.05
2022-11-23T15:08:30.251Z,78.20
2022-11-23T15:11:06.952Z,82.88
2022-11-23T15:13:49.640Z,66.03
2022-11-23T15:16:20.399Z,61.25
2022-11-23T15:18:49.359Z,64.47
2022-11-23T15:21:27.207Z,67.60
2022-11-23T15:23:58.308Z,73.25
2022-11-23T15:29:37.034Z,79.60
2022-11-23T15:32:30.740Z,75.70
2022-11-23T15:37:31.374Z,81.88
2022-11-23T15:39:59.521Z,81.65
2022-11-23T15:42:28.664Z,74.70
2022-11-23T15:44:56.648Z,78.30
2022-11-23T15:47:28.147Z,79.07
2022-11-23T15:50:04.048Z,79.40
2022-11-23T15:52:37.333Z,78.05
2022-11-23T15:55:14.453Z,51.60
2022-11-23T15:57:42.967Z,69.45
2022-11-23T16:00:24.937Z,72.85
2022-11-23T16:02:53.528Z,70.10
2022-11-23T16:05:23.720Z,75.00
2022-11-23T16:08:02.586Z,84.22
2022-11-23T16:10:37.526Z,80.38
2022-11-23T16:13:08.818Z,67.72
2022-11-23T16:15:44.271Z,65.03
2022-11-23T16:18:18.475Z,66.53
2022-11-23T16:20:49.236Z,73.38
2022-11-23T16:23:55.436Z,72.28
2022-11-23T16:26:33.500Z,70.68
2022-11-23T16:29:02.430Z,84.03
2022-11-23T16:31:51.711Z,72.20
2022-11-23T16:34:20.190Z,68.43
2022-11-23T16:36:48.425Z,70.13
2022-11-23T16:39:16.569Z,63.53
2022-11-23T16:41:44.366Z,68.85
2022-11-23T16:44:12.693Z,77.95
2022-11-23T16:46:43.426Z,67.22
2022-11-23T16:49:21.601Z,58.92
2022-11-23T16:51:56.496Z,58.00
2022-11-23T16:54:25.746Z,60.47
2022-11-23T16:56:53.975Z,60.10
2022-11-23T16:59:23.859Z,56.28
2022-11-23T17:01:56.964Z,53.85
2022-11-23T17:04:26.523Z,50.95
2022-11-23T17:06:54.426Z,57.95
2022-11-23T17:09:22.410Z,57.03
2022-11-23T17:11:50.962Z,47.88
2022-11-23T17:14:20.662Z,54.50
2022-11-23T17:16:49.889Z,52.03
2022-11-23T17:19:20.044Z,50.15
2022-11-23T17:21:47.982Z,51.97
2022-11-23T17:24:16.009Z,56.80
2022-11-23T17:26:46.536Z,48.35
2022-11-23T17:29:19.083Z,51.42
2022-11-23T17:31:48.044Z,48.53
2022-11-23T17:34:16.535Z,45.90
2022-11-23T17:36:46.288Z,50.67
2022-11-23T17:39:24.173Z,57.15
2022-11-23T17:41:52.510Z,50.38
2022-11-23T17:44:20.973Z,55.33
2022-11-23T17:46:49.891Z,53.38
2022-11-23T17:49:27.520Z,63.25
2022-11-23T17:51:56.249Z,51.35
2022-11-23T17:54:24.959Z,55.78
2022-11-23T17:56:52.762Z,53.53
2022-11-23T17:59:20.830Z,58.55
2022-11-23T18:01:49.139Z,61.45
2022-11-23T18:04:17.175Z,57.35
2022-11-23T18:06:44.990Z,61.15
2022-11-23T18:09:13.092Z,60.90
2022-11-23T18:11:40.838Z,60.05
2022-11-23T18:14:08.435Z,63.80
2022-11-23T18:16:36.424Z,56.20
2022-11-23T18:19:04.727Z,60.13
2022-11-23T18:21:32.753Z,61.78
2022-11-23T18:24:04.456Z,66.30
2022-11-23T18:26:33.044Z,63.70
2022-11-23T18:29:00.825Z,67.63
2022-11-23T18:31:29.055Z,68.45
2022-11-23T18:33:56.931Z,63.47
2022-11-23T18:36:25.181Z,61.92
2022-11-23T18:38:53.084Z,66.30
2022-11-23T18:41:22.647Z,79.60
2022-11-23T18:43:50.584Z,76.13
2022-11-23T18:46:21.759Z,71.85
2022-11-23T18:48:51.054Z,73.97
2022-11-23T18:51:19.826Z,76.13
2022-11-23T18:53:48.149Z,73.30
2022-11-23T18:56:16.563Z,76.30
2022-11-23T18:58:45.867Z,65.07
2022-11-23T19:01:19.558Z,63.85
2022-11-23T19:03:50.346Z,63.67
2022-11-23T19:06:20.790Z,60.97
2022-11-23T19:08:50.924Z,72.63
2022-11-23T19:11:21.414Z,61.78
2022-11-23T19:13:51.727Z,58.40
2022-11-23T19:16:23.838Z,61.75
2022-11-23T19:18:59.560Z,77.45
2022-11-23T19:21:31.071Z,80.70
2022-11-23T19:24:00.390Z,63.67
2022-11-23T19:26:30.119Z,59.10
2022-11-23T19:28:59.039Z,60.63
2022-11-23T19:31:29.873Z,66.45
2022-11-23T19:34:02.375Z,73.88
2022-11-23T19:36:33.273Z,68.05
2022-11-23T19:39:00.977Z,69.88
2022-11-23T19:41:30.805Z,63.92
2022-11-23T19:44:00.241Z,63.47
2022-11-23T19:46:30.512Z,66.95
2022-11-23T19:48:59.283Z,62.22
2022-11-23T19:51:28.243Z,63.65
2022-11-23T19:54:01.879Z,62.75
2022-11-23T19:56:30.225Z,54.90
2022-11-23T19:59:00.972Z,53.22
2022-11-23T20:01:32.156Z,61.25
2022-11-23T20:04:09.602Z,69.00
2022-11-23T20:06:42.526Z,97.65
2022-11-23T20:09:13.483Z,96.18
2022-11-23T20:11:42.420Z,82.88
2022-11-23T20:14:13.275Z,73.65
2022-11-23T20:16:41.403Z,64.75
2022-11-23T20:19:10.346Z,61.47
2022-11-23T20:21:38.684Z,59.70
2022-11-23T20:24:13.035Z,64.10
2022-11-23T20:26:42.312Z,57.83
2022-11-23T20:29:10.740Z,55.20
2022-11-23T20:31:39.310Z,44.70
2022-11-23T20:34:09.461Z,51.38
2022-11-23T20:36:39.149Z,45.78
2022-11-23T20:39:09.894Z,47.90
2022-11-23T20:41:38.837Z,53.03
2022-11-23T20:44:12.021Z,45.85
2022-11-23T20:49:30.106Z,51.67
2022-11-23T20:51:59.562Z,52.25
2022-11-23T20:54:27.312Z,49.90
2022-11-23T20:56:55.731Z,54.42
2022-11-23T20:59:24.414Z,48.53
2022-11-23T21:01:52.857Z,49.28
2022-11-23T21:04:20.596Z,49.15
2022-11-23T21:06:48.642Z,45.03
2022-11-23T21:09:17.171Z,62.47
2022-11-23T21:12:03.955Z,60.08
2022-11-23T21:14:33.090Z,55.00
2022-11-23T21:17:01.471Z,48.35
2022-11-23T21:19:33.918Z,50.42
2022-11-23T21:22:10.971Z,49.63
2022-11-23T21:24:39.443Z,48.17
2022-11-23T21:27:12.081Z,51.30
2022-11-23T21:29:40.545Z,49.28
2022-11-23T21:32:14.763Z,51.83
2022-11-23T21:34:43.024Z,55.05
2022-11-23T21:37:12.648Z,51.03
2022-11-23T21:39:41.543Z,47.78
2022-11-23T21:42:10.165Z,49.17
2022-11-23T21:44:37.931Z,48.72
2022-11-23T21:47:06.061Z,49.63
2022-11-23T21:49:33.870Z,54.47
2022-11-23T21:52:01.896Z,52.08
2022-11-23T21:54:29.613Z,51.40
2022-11-23T21:56:57.772Z,53.35
2022-11-23T21:59:25.709Z,50.75
2022-11-23T22:08:13.643Z,46.03
2022-11-23T22:10:37.951Z,47.55
2022-11-23T22:13:06.013Z,52.17
2022-11-23T22:15:33.952Z,46.25
2022-11-23T22:18:02.049Z,52.22
2022-11-23T22:20:29.976Z,49.58
2022-11-23T22:22:58.263Z,48.35
2022-11-23T22:25:26.281Z,53.00
2022-11-23T22:27:54.438Z,51.97
2022-11-23T22:30:22.652Z,49.35
2022-11-23T22:32:50.799Z,47.78
2022-11-23T22:35:18.866Z,49.60
2022-11-23T22:37:47.548Z,48.42
2022-11-23T22:40:15.627Z,47.70
2022-11-23T22:42:44.265Z,43.55
2022-11-23T22:45:12.330Z,44.75
2022-11-23T22:47:40.385Z,51.28
2022-11-23T22:50:08.643Z,44.30
2022-11-23T22:52:36.728Z,48.67
2022-11-23T22:55:04.918Z,45.80
2022-11-23T22:57:33.209Z,44.35
2022-11-23T23:00:00.994Z,45.13
2022-11-23T23:02:30.233Z,47.33
2022-11-23T23:04:58.384Z,48.63
2022-11-23T23:07:26.675Z,42.30
2022-11-23T23:09:54.568Z,46.05
2022-11-23T23:12:22.647Z,47.10
2022-11-23T23:14:50.640Z,49.92
2022-11-23T23:17:18.744Z,48.42
2022-11-23T23:19:47.064Z,45.30
2022-11-23T23:22:15.225Z,47.80
2022-11-23T23:24:43.130Z,53.03
2022-11-23T23:27:11.179Z,49.15
2022-11-23T23:29:39.017Z,44.47
2022-11-23T23:32:07.163Z,44.42
2022-11-23T23:34:35.285Z,47.25
2022-11-23T23:37:03.506Z,45.13
2022-11-23T23:39:31.334Z,48.78
2022-11-23T23:41:59.387Z,46.88
2022-11-23T23:44:27.318Z,49.58
2022-11-23T23:46:55.414Z,50.03
2022-11-23T23:49:24.639Z,51.85
2022-11-23T23:51:52.778Z,48.50
2022-11-23T23:54:20.546Z,48.78
2022-11-23T23:56:48.667Z,53.25
2022-11-23T23:59:16.543Z,51.65
